Time;durP1;ratioP1;P1;durP2;ratioP2;P2;SDS_P1;SDS_P2;PMS_P1;PMS_P2;Temp;Humidity;BMP_temperature;BMP_pressure;BME280_temperature;BME280_humidity;BME280_pressure;Samples;Min_cycle;Max_cycle;Signal;HPM_P1;HPM_P2
2021/11/13 00:00:00;;;;;;;67.38;34.33;;;;;;;;;;4917918;29;20226;-87
2021/11/13 00:02:26;;;;;;;73.32;36.60;;;;;;;;;;4930411;29;20078;-87
2021/11/13 00:04:52;;;;;;;66.72;35.15;;;;;;;;;;4919887;29;20076;-87
2021/11/13 00:07:19;;;;;;;68.25;35.20;;;;;;;;;;4917655;29;20035;-87
2021/11/13 00:09:45;;;;;;;77.03;38.95;;;;;;;;;;4918206;29;20031;-87
2021/11/13 00:12:11;;;;;;;78.30;39.35;;;;;;;;;;4917378;29;20036;-87
2021/11/13 00:14:37;;;;;;;72.65;36.42;;;;;;;;;;4919125;29;20036;-87
2021/11/13 00:17:04;;;;;;;77.28;37.40;;;;;;;;;;4919197;29;20028;-87
2021/11/13 00:19:30;;;;;;;77.88;38.50;;;;;;;;;;4918728;29;20516;-87
2021/11/13 00:21:56;;;;;;;79.35;39.67;;;;;;;;;;4920438;29;20501;-87
2021/11/13 00:24:22;;;;;;;87.95;39.55;;;;;;;;;;4917825;29;20036;-87
2021/11/13 00:26:50;;;;;;;86.13;40.83;;;;;;;;;;4916978;29;20032;-88
2021/11/13 00:29:16;;;;;;;83.32;42.17;;;;;;;;;;4917323;29;20057;-87
2021/11/13 00:31:42;;;;;;;79.10;36.85;;;;;;;;;;4917502;29;20032;-87
2021/11/13 00:34:08;;;;;;;78.15;39.78;;;;;;;;;;4918043;29;20031;-87
2021/11/13 00:36:34;;;;;;;82.28;41.33;;;;;;;;;;4917361;29;20500;-88
2021/11/13 00:39:00;;;;;;;82.50;41.30;;;;;;;;;;4917437;29;20127;-87
2021/11/13 00:41:26;;;;;;;82.05;38.95;;;;;;;;;;4916943;29;20526;-87
2021/11/13 00:43:53;;;;;;;75.30;38.20;;;;;;;;;;4916094;29;20453;-87
2021/11/13 00:46:19;;;;;;;71.22;34.13;;;;;;;;;;4916899;29;20024;-87
2021/11/13 00:48:45;;;;;;;77.78;36.40;;;;;;;;;;4919139;29;20039;-87
2021/11/13 00:51:11;;;;;;;71.00;36.90;;;;;;;;;;4917194;29;20036;-87
2021/11/13 00:53:37;;;;;;;69.50;35.75;;;;;;;;;;4916274;29;20036;-88
2021/11/13 00:56:03;;;;;;;65.72;35.53;;;;;;;;;;4917104;29;20148;-87
2021/11/13 00:58:29;;;;;;;68.22;35.72;;;;;;;;;;4916270;29;20477;-88
2021/11/13 01:00:55;;;;;;;69.00;33.33;;;;;;;;;;4917256;29;20064;-87
2021/11/13 01:03:21;;;;;;;61.88;34.35;;;;;;;;;;4916692;29;20038;-87
2021/11/13 01:05:48;;;;;;;64.10;33.60;;;;;;;;;;4917191;29;20022;-87
2021/11/13 01:08:14;;;;;;;63.08;33.95;;;;;;;;;;4916934;29;20028;-87
2021/11/13 01:10:40;;;;;;;66.43;35.30;;;;;;;;;;4917131;29;20407;-87
2021/11/13 01:13:06;;;;;;;64.97;34.15;;;;;;;;;;4922887;29;20031;-87
2021/11/13 01:15:32;;;;;;;62.25;33.75;;;;;;;;;;4936201;29;20024;-88
2021/11/13 01:17:58;;;;;;;65.22;34.22;;;;;;;;;;4918849;29;20076;-87
2021/11/13 01:20:25;;;;;;;58.25;32.58;;;;;;;;;;4917992;29;20102;-88
2021/11/13 01:22:52;;;;;;;63.90;31.40;;;;;;;;;;4916210;29;20135;-88
2021/11/13 01:25:18;;;;;;;57.85;32.03;;;;;;;;;;4916765;29;20024;-88
2021/11/13 01:27:44;;;;;;;58.08;31.17;;;;;;;;;;4917447;29;20032;-88
2021/11/13 01:30:11;;;;;;;60.92;31.92;;;;;;;;;;4916929;29;20032;-87
2021/11/13 01:32:37;;;;;;;59.05;29.60;;;;;;;;;;4916352;29;20080;-88
2021/11/13 01:35:05;;;;;;;61.47;32.65;;;;;;;;;;4917263;29;20367;-87
2021/11/13 01:37:31;;;;;;;58.00;29.27;;;;;;;;;;4916387;29;20104;-88
2021/11/13 01:39:57;;;;;;;51.67;29.67;;;;;;;;;;4917801;29;20040;-87
2021/11/13 01:42:26;;;;;;;55.85;29.55;;;;;;;;;;4916416;29;20028;-88
2021/11/13 01:44:55;;;;;;;58.17;32.08;;;;;;;;;;4933593;29;20036;-88
2021/11/13 01:47:21;;;;;;;56.50;31.98;;;;;;;;;;4928162;29;20032;-88
2021/11/13 01:49:48;;;;;;;53.60;29.83;;;;;;;;;;4917849;29;20020;-88
2021/11/13 01:52:14;;;;;;;60.70;31.90;;;;;;;;;;4917321;29;20032;-88
2021/11/13 01:54:41;;;;;;;56.35;31.73;;;;;;;;;;4917448;29;20042;-88
2021/11/13 01:57:10;;;;;;;61.25;31.77;;;;;;;;;;4915732;29;20039;-87
2021/11/13 01:59:40;;;;;;;61.00;32.72;;;;;;;;;;4913877;29;20052;-87
2021/11/13 02:02:06;;;;;;;58.38;30.63;;;;;;;;;;4900768;29;20032;-88
2021/11/13 02:04:33;;;;;;;55.00;31.95;;;;;;;;;;4900109;29;20032;-88
2021/11/13 02:06:59;;;;;;;59.65;31.65;;;;;;;;;;4915600;29;20028;-88
2021/11/13 02:09:26;;;;;;;55.28;28.17;;;;;;;;;;4915924;29;20035;-87
2021/11/13 02:11:53;;;;;;;55.97;27.83;;;;;;;;;;4915755;29;20126;-87
2021/11/13 02:14:19;;;;;;;52.65;28.25;;;;;;;;;;4915311;29;20468;-87
2021/11/13 02:16:45;;;;;;;51.40;28.38;;;;;;;;;;4934224;29;20055;-88
2021/11/13 02:19:11;;;;;;;58.05;29.70;;;;;;;;;;4916240;29;20051;-88
2021/11/13 02:21:37;;;;;;;52.53;27.88;;;;;;;;;;4916105;29;20095;-88
2021/11/13 02:24:03;;;;;;;55.03;30.30;;;;;;;;;;4916014;29;20028;-88
2021/11/13 02:26:29;;;;;;;59.58;29.95;;;;;;;;;;4916540;29;20024;-87
2021/11/13 02:28:56;;;;;;;60.13;32.13;;;;;;;;;;4916153;29;20575;-88
2021/11/13 02:31:39;;;;;;;62.00;33.10;;;;;;;;;;4916381;29;20406;-87
2021/11/13 02:34:06;;;;;;;63.08;31.52;;;;;;;;;;4917455;29;20028;-87
2021/11/13 02:36:32;;;;;;;63.58;33.85;;;;;;;;;;4925640;29;20050;-87
2021/11/13 02:38:58;;;;;;;65.43;32.28;;;;;;;;;;4919656;29;20040;-87
2021/11/13 02:41:27;;;;;;;62.17;32.28;;;;;;;;;;4919757;29;20425;-87
2021/11/13 02:43:54;;;;;;;63.55;33.42;;;;;;;;;;4920538;29;20024;-88
2021/11/13 02:46:20;;;;;;;60.65;33.65;;;;;;;;;;4916617;29;20039;-87
2021/11/13 02:48:48;;;;;;;59.35;32.22;;;;;;;;;;4921960;29;20036;-87
2021/11/13 02:51:14;;;;;;;63.75;32.67;;;;;;;;;;4915268;29;20036;-87
2021/11/13 02:53:42;;;;;;;56.38;30.77;;;;;;;;;;4914978;29;20032;-87
2021/11/13 02:56:09;;;;;;;66.00;30.90;;;;;;;;;;4914099;29;20080;-87
2021/11/13 02:58:36;;;;;;;61.33;31.95;;;;;;;;;;4914793;29;20040;-88
2021/11/13 03:01:06;;;;;;;56.15;28.92;;;;;;;;;;4915079;29;20024;-87
2021/11/13 03:03:33;;;;;;;56.78;29.40;;;;;;;;;;4915088;29;20054;-87
2021/11/13 03:06:00;;;;;;;60.97;30.73;;;;;;;;;;4915183;29;20434;-87
2021/11/13 03:08:35;;;;;;;57.72;29.75;;;;;;;;;;4914509;29;20509;-88
2021/11/13 03:11:04;;;;;;;60.78;28.45;;;;;;;;;;4914844;29;20061;-88
2021/11/13 03:13:31;;;;;;;59.42;30.80;;;;;;;;;;4914601;29;20517;-88
2021/11/13 03:15:57;;;;;;;55.28;30.80;;;;;;;;;;4914261;29;20411;-88
2021/11/13 03:18:24;;;;;;;63.88;30.90;;;;;;;;;;4914344;29;20032;-88
2021/11/13 03:20:50;;;;;;;60.90;32.22;;;;;;;;;;4915223;29;20111;-87
2021/11/13 03:23:17;;;;;;;52.88;29.05;;;;;;;;;;4914696;29;20059;-87
2021/11/13 03:26:01;;;;;;;51.55;29.30;;;;;;;;;;4914542;29;20028;-88
2021/11/13 03:28:29;;;;;;;51.47;28.52;;;;;;;;;;4911905;29;20032;-87
2021/11/13 03:31:00;;;;;;;55.35;28.58;;;;;;;;;;4905251;29;20032;-88
2021/11/13 03:33:26;;;;;;;56.30;29.00;;;;;;;;;;4915123;29;20032;-88
2021/11/13 03:35:53;;;;;;;54.47;28.70;;;;;;;;;;4914906;29;20044;-88
2021/11/13 03:38:19;;;;;;;57.00;28.67;;;;;;;;;;4928313;29;20035;-88
2021/11/13 03:40:46;;;;;;;53.58;29.10;;;;;;;;;;4924717;29;20032;-88
2021/11/13 03:43:13;;;;;;;46.30;27.88;;;;;;;;;;4914188;29;20199;-87
2021/11/13 03:45:39;;;;;;;62.47;30.52;;;;;;;;;;4915112;29;20478;-88
2021/11/13 03:48:05;;;;;;;57.83;30.33;;;;;;;;;;4914345;29;20124;-87
2021/11/13 03:50:31;;;;;;;52.35;29.40;;;;;;;;;;4914876;29;20028;-88
2021/11/13 03:52:58;;;;;;;57.50;30.35;;;;;;;;;;4913969;29;20409;-87
2021/11/13 03:55:24;;;;;;;58.88;29.08;;;;;;;;;;4914433;29;20032;-88
2021/11/13 03:57:50;;;;;;;55.83;29.60;;;;;;;;;;4913727;29;20450;-87
2021/11/13 04:00:17;;;;;;;55.47;29.80;;;;;;;;;;4911376;29;20084;-87
2021/11/13 04:02:46;;;;;;;60.22;32.05;;;;;;;;;;4886746;29;20030;-87
2021/11/13 04:05:13;;;;;;;55.47;28.13;;;;;;;;;;4858803;29;20120;-87
2021/11/13 04:07:39;;;;;;;56.85;28.33;;;;;;;;;;4876355;29;20029;-87
2021/11/13 04:10:06;;;;;;;57.88;30.42;;;;;;;;;;4880795;29;20033;-87
2021/11/13 04:12:33;;;;;;;55.28;29.48;;;;;;;;;;4869315;29;20131;-87
2021/11/13 04:14:59;;;;;;;54.00;27.92;;;;;;;;;;4877288;29;20124;-87
2021/11/13 04:17:25;;;;;;;60.65;31.30;;;;;;;;;;4878375;29;20033;-87
2021/11/13 04:19:51;;;;;;;59.10;30.08;;;;;;;;;;4891734;29;20036;-87
2021/11/13 04:22:17;;;;;;;56.10;31.67;;;;;;;;;;4878145;29;20132;-88
2021/11/13 04:24:43;;;;;;;56.03;30.92;;;;;;;;;;4876754;29;20029;-87
2021/11/13 04:27:09;;;;;;;57.72;29.15;;;;;;;;;;4876225;29;20039;-87
2021/11/13 04:29:35;;;;;;;51.70;28.10;;;;;;;;;;4887400;29;20067;-87
2021/11/13 04:32:01;;;;;;;58.03;30.73;;;;;;;;;;4898738;29;20430;-87
2021/11/13 04:34:33;;;;;;;59.03;31.75;;;;;;;;;;4889263;29;20033;-88
2021/11/13 04:37:01;;;;;;;67.78;32.78;;;;;;;;;;4879690;29;20033;-87
2021/11/13 04:39:28;;;;;;;57.13;29.23;;;;;;;;;;4880025;29;20037;-87
2021/11/13 04:41:54;;;;;;;55.53;28.85;;;;;;;;;;4879800;29;20039;-87
2021/11/13 04:44:20;;;;;;;55.13;29.85;;;;;;;;;;4880324;29;20057;-87
2021/11/13 04:46:46;;;;;;;60.13;29.85;;;;;;;;;;4879996;29;20032;-87
2021/11/13 04:49:12;;;;;;;60.75;30.83;;;;;;;;;;4879390;29;20033;-88
2021/11/13 04:51:38;;;;;;;69.75;34.78;;;;;;;;;;4879445;29;20053;-87
2021/11/13 04:54:04;;;;;;;58.00;30.20;;;;;;;;;;4873973;29;20564;-87
2021/11/13 04:56:31;;;;;;;63.20;32.53;;;;;;;;;;4869390;29;20174;-87
2021/11/13 04:58:57;;;;;;;58.70;29.33;;;;;;;;;;4884724;29;20056;-87
2021/11/13 05:01:23;;;;;;;61.45;31.80;;;;;;;;;;4914136;29;20039;-87
2021/11/13 05:03:49;;;;;;;58.00;30.88;;;;;;;;;;4914432;29;20025;-87
2021/11/13 05:06:15;;;;;;;56.47;29.63;;;;;;;;;;4899019;29;20024;-87
2021/11/13 05:08:41;;;;;;;58.20;28.98;;;;;;;;;;4899419;29;20391;-87
2021/11/13 05:11:07;;;;;;;57.55;29.20;;;;;;;;;;4909216;29;20430;-87
2021/11/13 05:13:33;;;;;;;58.80;29.45;;;;;;;;;;4898283;29;20510;-87
2021/11/13 05:15:59;;;;;;;63.15;30.67;;;;;;;;;;4898105;29;20120;-88
2021/11/13 05:18:25;;;;;;;58.10;30.05;;;;;;;;;;4898167;29;20399;-87
2021/11/13 05:20:51;;;;;;;60.38;31.83;;;;;;;;;;4904835;29;20032;-87
2021/11/13 05:23:17;;;;;;;59.42;30.42;;;;;;;;;;4897748;29;20024;-87
2021/11/13 05:25:43;;;;;;;58.13;30.48;;;;;;;;;;4913144;29;20140;-87
2021/11/13 05:28:09;;;;;;;64.60;32.00;;;;;;;;;;4898179;29;20025;-87
2021/11/13 05:30:36;;;;;;;60.00;30.08;;;;;;;;;;4897598;29;20085;-88
2021/11/13 05:33:02;;;;;;;64.18;31.45;;;;;;;;;;4897731;29;20521;-87
2021/11/13 05:35:28;;;;;;;58.30;29.05;;;;;;;;;;4897890;29;20032;-87
2021/11/13 05:37:54;;;;;;;65.72;31.83;;;;;;;;;;4898341;29;20064;-87
2021/11/13 05:40:20;;;;;;;61.08;30.33;;;;;;;;;;4895684;29;20041;-87
2021/11/13 05:42:49;;;;;;;60.58;30.58;;;;;;;;;;4892698;29;20115;-87
2021/11/13 05:45:15;;;;;;;63.60;31.08;;;;;;;;;;4893505;29;20088;-87
2021/11/13 05:47:41;;;;;;;59.50;31.40;;;;;;;;;;4896496;29;20096;-87
2021/11/13 05:50:10;;;;;;;62.13;32.28;;;;;;;;;;4895410;29;20278;-87
2021/11/13 05:52:36;;;;;;;64.22;30.65;;;;;;;;;;4903793;29;20024;-87
2021/11/13 05:55:02;;;;;;;72.30;31.80;;;;;;;;;;4895980;29;20590;-87
2021/11/13 05:57:28;;;;;;;59.92;29.83;;;;;;;;;;4896344;29;20091;-87
2021/11/13 05:59:55;;;;;;;67.63;33.22;;;;;;;;;;4896256;29;20406;-87
2021/11/13 06:02:21;;;;;;;69.43;31.33;;;;;;;;;;4901270;29;20028;-87
2021/11/13 06:04:47;;;;;;;66.53;32.20;;;;;;;;;;4909320;29;20024;-87
2021/11/13 06:07:13;;;;;;;65.18;30.42;;;;;;;;;;4895170;29;20116;-87
2021/11/13 06:09:39;;;;;;;72.85;32.55;;;;;;;;;;4896681;29;20064;-87
2021/11/13 06:12:05;;;;;;;67.43;31.48;;;;;;;;;;4898860;29;20039;-87
2021/11/13 06:14:31;;;;;;;58.45;30.40;;;;;;;;;;4930923;29;20036;-86
2021/11/13 06:16:57;;;;;;;62.35;30.95;;;;;;;;;;4913973;29;20029;-86
2021/11/13 06:19:24;;;;;;;63.40;29.92;;;;;;;;;;4894378;29;20422;-88
2021/11/13 06:21:50;;;;;;;63.20;30.38;;;;;;;;;;4908980;29;20068;-87
2021/11/13 06:24:16;;;;;;;66.75;33.22;;;;;;;;;;4892013;29;20059;-87
2021/11/13 06:26:42;;;;;;;63.42;30.55;;;;;;;;;;4894183;29;20029;-88
2021/11/13 06:29:08;;;;;;;67.78;32.63;;;;;;;;;;4892212;29;20045;-88
2021/11/13 06:31:35;;;;;;;58.97;29.52;;;;;;;;;;4895333;29;20096;-88
2021/11/13 06:34:01;;;;;;;59.40;30.10;;;;;;;;;;4895836;29;20037;-87
2021/11/13 06:36:27;;;;;;;61.58;29.75;;;;;;;;;;4895828;29;20028;-88
2021/11/13 06:38:53;;;;;;;57.63;28.33;;;;;;;;;;4896665;29;20499;-87
2021/11/13 06:41:19;;;;;;;56.95;29.08;;;;;;;;;;4909088;29;20028;-86
2021/11/13 06:43:45;;;;;;;61.97;28.67;;;;;;;;;;4899348;29;20024;-87
2021/11/13 06:46:11;;;;;;;63.38;31.92;;;;;;;;;;4891429;29;20032;-88
2021/11/13 06:48:37;;;;;;;63.38;29.42;;;;;;;;;;4893559;29;20546;-87
2021/11/13 06:51:04;;;;;;;66.63;30.65;;;;;;;;;;4894508;29;20039;-87
2021/11/13 06:53:30;;;;;;;66.53;31.58;;;;;;;;;;4894808;29;20033;-87
2021/11/13 06:55:56;;;;;;;57.30;29.58;;;;;;;;;;4911563;29;20123;-87
2021/11/13 06:58:22;;;;;;;69.15;31.98;;;;;;;;;;4898336;29;20039;-88
2021/11/13 07:00:48;;;;;;;67.05;30.85;;;;;;;;;;4928635;29;20402;-88
2021/11/13 07:03:14;;;;;;;59.83;31.42;;;;;;;;;;4914705;29;20106;-88
2021/11/13 07:05:40;;;;;;;73.82;31.83;;;;;;;;;;4915054;29;20104;-88
2021/11/13 07:08:06;;;;;;;70.20;31.42;;;;;;;;;;4916730;29;20042;-87
2021/11/13 07:10:32;;;;;;;67.43;31.02;;;;;;;;;;4914028;29;20024;-88
2021/11/13 07:12:58;;;;;;;72.82;33.00;;;;;;;;;;4914705;29;20039;-88
2021/11/13 07:15:30;;;;;;;77.70;36.28;;;;;;;;;;4905392;29;20116;-88
2021/11/13 07:17:57;;;;;;;76.47;35.92;;;;;;;;;;4898293;29;20028;-88
2021/11/13 07:20:23;;;;;;;77.30;34.42;;;;;;;;;;4914536;29;20036;-89
2021/11/13 07:22:50;;;;;;;68.65;32.90;;;;;;;;;;4914516;29;20482;-88
2021/11/13 07:25:16;;;;;;;77.38;35.63;;;;;;;;;;4914639;29;20072;-86
2021/11/13 07:27:46;;;;;;;76.10;32.25;;;;;;;;;;4913991;29;20507;-89
2021/11/13 07:30:15;;;;;;;76.90;31.70;;;;;;;;;;4913795;29;20031;-87
2021/11/13 07:32:41;;;;;;;71.20;30.85;;;;;;;;;;4908729;29;20036;-88
2021/11/13 07:35:07;;;;;;;67.55;32.75;;;;;;;;;;4888891;29;20029;-87
2021/11/13 07:37:33;;;;;;;74.15;32.58;;;;;;;;;;4910752;29;20482;-88
2021/11/13 07:39:59;;;;;;;70.05;34.15;;;;;;;;;;4910784;29;20033;-87
2021/11/13 07:42:25;;;;;;;72.78;31.48;;;;;;;;;;4909579;29;20043;-87
2021/11/13 07:44:52;;;;;;;74.30;34.72;;;;;;;;;;4911258;29;20036;-86
2021/11/13 07:47:18;;;;;;;79.75;35.97;;;;;;;;;;4914766;29;20059;-87
2021/11/13 07:49:44;;;;;;;73.15;33.53;;;;;;;;;;4913784;29;20032;-87
2021/11/13 07:52:11;;;;;;;74.63;35.30;;;;;;;;;;4915287;29;20454;-87
2021/11/13 07:54:37;;;;;;;72.88;34.30;;;;;;;;;;4915721;29;20043;-87
2021/11/13 07:57:05;;;;;;;79.20;32.78;;;;;;;;;;4916517;29;20032;-86
2021/11/13 07:59:31;;;;;;;80.10;34.85;;;;;;;;;;4911716;29;20052;-86
2021/11/13 08:01:58;;;;;;;67.15;32.88;;;;;;;;;;4896817;29;20037;-87
2021/11/13 08:04:24;;;;;;;70.88;32.65;;;;;;;;;;4899251;29;20036;-86
2021/11/13 08:06:50;;;;;;;79.85;33.88;;;;;;;;;;4899357;29;20029;-86
2021/11/13 08:09:16;;;;;;;83.90;36.58;;;;;;;;;;4915556;29;20024;-86
2021/11/13 08:11:42;;;;;;;77.57;32.85;;;;;;;;;;4914673;29;20370;-87
2021/11/13 08:14:08;;;;;;;85.55;37.90;;;;;;;;;;4915461;29;20028;-87
2021/11/13 08:16:35;;;;;;;83.07;37.55;;;;;;;;;;4893429;29;20053;-87
2021/11/13 08:19:01;;;;;;;95.38;36.60;;;;;;;;;;4899369;29;20124;-87
2021/11/13 08:21:27;;;;;;;83.13;36.90;;;;;;;;;;4900282;29;20040;-87
2021/11/13 08:23:53;;;;;;;84.40;38.60;;;;;;;;;;4911474;29;20020;-87
2021/11/13 08:26:19;;;;;;;84.45;37.75;;;;;;;;;;4898482;29;20025;-86
2021/11/13 08:28:45;;;;;;;85.63;35.60;;;;;;;;;;4895881;29;20029;-87
2021/11/13 08:31:11;;;;;;;94.38;39.63;;;;;;;;;;4880875;29;20029;-86
2021/11/13 08:33:37;;;;;;;87.05;37.42;;;;;;;;;;4885172;29;20111;-86
2021/11/13 08:36:04;;;;;;;83.82;37.30;;;;;;;;;;4882976;29;20153;-87
2021/11/13 08:38:30;;;;;;;86.75;39.63;;;;;;;;;;4908157;29;20029;-87
2021/11/13 08:40:57;;;;;;;81.70;37.28;;;;;;;;;;4890106;29;20081;-87
2021/11/13 08:43:23;;;;;;;81.63;36.20;;;;;;;;;;4897038;29;20028;-86
2021/11/13 08:45:51;;;;;;;90.57;37.55;;;;;;;;;;4897215;29;20701;-86
2021/11/13 08:48:17;;;;;;;90.70;38.88;;;;;;;;;;4899048;29;20031;-86
2021/11/13 08:50:43;;;;;;;80.25;37.55;;;;;;;;;;4897310;29;20471;-87
2021/11/13 08:53:12;;;;;;;89.72;37.03;;;;;;;;;;4897269;29;20041;-87
2021/11/13 08:55:39;;;;;;;85.95;37.08;;;;;;;;;;4896959;29;20036;-86
2021/11/13 08:58:06;;;;;;;88.32;34.80;;;;;;;;;;4914239;29;20108;-86
2021/11/13 09:00:36;;;;;;;86.75;37.33;;;;;;;;;;4894022;29;20053;-86
2021/11/13 09:03:03;;;;;;;89.75;37.28;;;;;;;;;;4887985;29;20041;-86
2021/11/13 09:05:30;;;;;;;95.95;40.47;;;;;;;;;;4870536;29;20033;-86
2021/11/13 09:07:57;;;;;;;90.68;38.88;;;;;;;;;;4879316;29;20055;-86
2021/11/13 09:10:23;;;;;;;102.93;40.97;;;;;;;;;;4895641;29;20065;-86
2021/11/13 09:12:50;;;;;;;96.30;39.78;;;;;;;;;;4894643;29;20021;-86
2021/11/13 09:15:22;;;;;;;95.85;40.95;;;;;;;;;;4872505;29;20165;-86
2021/11/13 09:17:48;;;;;;;89.53;37.78;;;;;;;;;;4871653;29;20033;-87
2021/11/13 09:20:15;;;;;;;88.07;36.80;;;;;;;;;;4887018;29;20028;-86
2021/11/13 09:22:41;;;;;;;81.90;33.83;;;;;;;;;;4880784;29;20068;-86
2021/11/13 09:25:10;;;;;;;96.45;37.88;;;;;;;;;;4872054;29;20026;-86
2021/11/13 09:27:40;;;;;;;89.70;37.72;;;;;;;;;;4871342;29;20029;-86
2021/11/13 09:30:06;;;;;;;82.05;35.38;;;;;;;;;;4871146;29;20025;-86
2021/11/13 09:32:33;;;;;;;82.00;34.13;;;;;;;;;;4865173;29;20033;-87
2021/11/13 09:34:59;;;;;;;82.18;34.45;;;;;;;;;;4870874;29;20037;-86
2021/11/13 09:37:25;;;;;;;91.75;36.05;;;;;;;;;;4872761;29;20028;-86
2021/11/13 09:39:51;;;;;;;98.00;39.22;;;;;;;;;;4883137;29;20427;-86
2021/11/13 09:42:17;;;;;;;92.93;38.65;;;;;;;;;;4870326;29;20495;-87
2021/11/13 09:44:43;;;;;;;90.93;38.78;;;;;;;;;;4878887;29;20032;-86
2021/11/13 09:47:10;;;;;;;97.93;37.50;;;;;;;;;;4879686;29;20025;-86
2021/11/13 09:49:36;;;;;;;90.50;38.65;;;;;;;;;;4887258;29;20059;-86
2021/11/13 09:52:02;;;;;;;89.20;40.50;;;;;;;;;;4875352;29;20037;-86
2021/11/13 09:54:28;;;;;;;86.50;37.15;;;;;;;;;;4878476;29;20037;-86
2021/11/13 09:56:55;;;;;;;87.32;37.53;;;;;;;;;;4889321;29;20065;-86
2021/11/13 09:59:22;;;;;;;82.03;36.03;;;;;;;;;;4891430;29;20057;-86
2021/11/13 10:01:48;;;;;;;91.90;36.63;;;;;;;;;;4887630;29;20033;-86
2021/11/13 10:04:14;;;;;;;78.50;37.78;;;;;;;;;;4873186;29;20104;-86
2021/11/13 10:06:40;;;;;;;72.88;34.15;;;;;;;;;;4877970;29;20025;-86
2021/11/13 10:09:06;;;;;;;88.07;37.47;;;;;;;;;;4895606;29;20065;-86
2021/11/13 10:11:32;;;;;;;85.32;36.80;;;;;;;;;;4892884;29;20041;-86
2021/11/13 10:13:59;;;;;;;73.00;34.90;;;;;;;;;;4891673;29;20025;-86
2021/11/13 10:16:34;;;;;;;85.82;35.53;;;;;;;;;;4879039;29;20033;-86
2021/11/13 10:19:09;;;;;;;77.80;35.47;;;;;;;;;;4889565;29;20028;-86
2021/11/13 10:21:36;;;;;;;77.57;35.58;;;;;;;;;;4891845;29;20029;-87
2021/11/13 10:24:04;;;;;;;77.53;33.22;;;;;;;;;;4877578;29;20021;-86
2021/11/13 10:26:32;;;;;;;71.53;30.63;;;;;;;;;;4879288;29;20526;-86
2021/11/13 10:29:01;;;;;;;57.47;27.52;;;;;;;;;;4891672;29;20387;-86
2021/11/13 10:31:32;;;;;;;60.30;26.48;;;;;;;;;;4893099;29;20104;-86
2021/11/13 10:33:59;;;;;;;62.30;27.58;;;;;;;;;;4879704;29;20032;-86
2021/11/13 10:36:34;;;;;;;58.65;27.98;;;;;;;;;;4877699;29;20077;-86
2021/11/13 10:39:03;;;;;;;61.65;28.45;;;;;;;;;;4892556;29;20036;-86
2021/11/13 10:41:29;;;;;;;52.47;25.70;;;;;;;;;;4875268;29;20061;-86
2021/11/13 10:43:55;;;;;;;53.42;25.52;;;;;;;;;;4893600;29;20033;-86
2021/11/13 10:46:23;;;;;;;51.35;24.25;;;;;;;;;;4889777;29;20062;-86
2021/11/13 10:48:52;;;;;;;57.53;26.52;;;;;;;;;;4877565;29;20045;-86
2021/11/13 10:51:20;;;;;;;44.90;22.95;;;;;;;;;;4876713;29;20115;-87
2021/11/13 10:53:47;;;;;;;48.13;23.13;;;;;;;;;;4891428;29;20033;-86
2021/11/13 10:56:17;;;;;;;53.95;24.10;;;;;;;;;;4879636;29;20029;-86
2021/11/13 10:58:54;;;;;;;50.22;24.65;;;;;;;;;;4893102;29;20041;-86
2021/11/13 11:01:24;;;;;;;58.55;26.35;;;;;;;;;;4894359;29;20490;-86
2021/11/13 11:03:50;;;;;;;48.22;22.73;;;;;;;;;;4915795;29;20032;-86
2021/11/13 11:06:30;;;;;;;47.95;23.52;;;;;;;;;;4914163;29;20072;-86
2021/11/13 11:08:56;;;;;;;39.58;22.27;;;;;;;;;;4913538;29;20028;-86
2021/11/13 11:11:34;;;;;;;42.03;21.23;;;;;;;;;;4913558;29;20062;-86
2021/11/13 11:14:01;;;;;;;44.10;21.77;;;;;;;;;;4917080;29;20020;-85
2021/11/13 11:16:32;;;;;;;51.22;25.13;;;;;;;;;;4915139;29;20462;-86
2021/11/13 11:18:58;;;;;;;50.67;24.25;;;;;;;;;;4899130;29;20468;-86
2021/11/13 11:21:54;;;;;;;51.30;25.20;;;;;;;;;;4914638;29;20041;-86
2021/11/13 11:24:23;;;;;;;53.95;25.33;;;;;;;;;;4886610;29;20092;-87
2021/11/13 11:27:00;;;;;;;54.10;22.50;;;;;;;;;;4915206;29;20035;-86
2021/11/13 11:29:28;;;;;;;50.13;22.90;;;;;;;;;;4912198;29;20020;-86
2021/11/13 11:31:55;;;;;;;50.25;22.83;;;;;;;;;;4914793;29;20095;-86
2021/11/13 11:34:23;;;;;;;44.42;23.73;;;;;;;;;;4914373;29;20028;-85
2021/11/13 11:36:49;;;;;;;49.42;22.58;;;;;;;;;;4912629;29;20036;-86
2021/11/13 11:39:15;;;;;;;54.67;24.17;;;;;;;;;;4902440;29;20055;-86
2021/11/13 11:41:42;;;;;;;47.25;21.30;;;;;;;;;;4916546;29;20037;-86
2021/11/13 11:44:08;;;;;;;46.47;22.70;;;;;;;;;;4918102;29;20024;-86
2021/11/13 11:46:34;;;;;;;46.58;21.45;;;;;;;;;;4902280;29;20501;-86
2021/11/13 11:49:01;;;;;;;48.90;23.45;;;;;;;;;;4902269;29;20083;-85
2021/11/13 11:51:28;;;;;;;51.33;23.02;;;;;;;;;;4919225;29;20064;-86
2021/11/13 11:53:59;;;;;;;45.42;22.27;;;;;;;;;;4916279;29;20401;-86
2021/11/13 11:56:26;;;;;;;52.42;23.85;;;;;;;;;;4901287;29;20035;-86
2021/11/13 11:58:52;;;;;;;42.47;20.92;;;;;;;;;;4918747;29;20063;-86
2021/11/13 12:01:26;;;;;;;47.65;22.33;;;;;;;;;;4916843;29;20070;-87
2021/11/13 12:03:52;;;;;;;36.53;16.98;;;;;;;;;;4917728;29;20032;-86
2021/11/13 12:06:18;;;;;;;36.83;18.10;;;;;;;;;;4913823;29;20487;-86
2021/11/13 12:09:01;;;;;;;45.85;20.02;;;;;;;;;;4900899;29;20027;-86
2021/11/13 12:11:32;;;;;;;39.97;18.40;;;;;;;;;;4918531;29;20040;-85
2021/11/13 12:14:18;;;;;;;40.45;20.13;;;;;;;;;;4901859;29;20143;-86
2021/11/13 12:16:44;;;;;;;37.70;17.90;;;;;;;;;;4899903;29;20346;-86
2021/11/13 12:19:10;;;;;;;37.30;18.30;;;;;;;;;;4900455;29;20044;-88
2021/11/13 12:21:37;;;;;;;46.63;20.45;;;;;;;;;;4920905;29;20070;-86
2021/11/13 12:24:07;;;;;;;44.10;22.13;;;;;;;;;;4917373;29;20024;-86
2021/11/13 12:26:34;;;;;;;46.72;21.73;;;;;;;;;;4918123;29;20043;-86
2021/11/13 12:29:01;;;;;;;43.70;21.00;;;;;;;;;;4913255;29;20024;-86
2021/11/13 12:31:50;;;;;;;41.38;20.38;;;;;;;;;;4897414;29;20163;-87
2021/11/13 12:34:18;;;;;;;43.28;22.98;;;;;;;;;;4919713;29;20021;-86
2021/11/13 12:36:54;;;;;;;39.28;21.33;;;;;;;;;;4918272;29;20477;-86
2021/11/13 12:39:21;;;;;;;38.40;20.40;;;;;;;;;;4917041;29;20127;-87
2021/11/13 12:41:57;;;;;;;34.70;18.85;;;;;;;;;;4917632;29;20028;-86
2021/11/13 12:44:27;;;;;;;29.15;15.48;;;;;;;;;;4919541;29;20490;-86
2021/11/13 12:47:05;;;;;;;33.38;16.80;;;;;;;;;;4912882;29;20091;-86
2021/11/13 12:49:33;;;;;;;29.63;15.77;;;;;;;;;;4890641;29;20123;-86
2021/11/13 12:51:59;;;;;;;31.67;17.70;;;;;;;;;;4902240;29;20028;-86
2021/11/13 12:54:32;;;;;;;33.50;16.27;;;;;;;;;;4917262;29;20405;-86
2021/11/13 12:57:04;;;;;;;31.38;16.02;;;;;;;;;;4917463;29;20021;-86
2021/11/13 12:59:31;;;;;;;31.58;15.07;;;;;;;;;;4908269;29;21729;-86
2021/11/13 13:02:08;;;;;;;30.73;15.50;;;;;;;;;;4894060;29;20044;-86
2021/11/13 13:04:35;;;;;;;31.75;16.52;;;;;;;;;;4872050;29;20032;-86
2021/11/13 13:07:03;;;;;;;27.27;16.25;;;;;;;;;;4891028;29;20028;-86
2021/11/13 13:09:33;;;;;;;32.42;17.02;;;;;;;;;;4885803;29;20487;-86
2021/11/13 13:12:00;;;;;;;29.48;15.60;;;;;;;;;;4888844;29;20033;-86
2021/11/13 13:14:30;;;;;;;35.75;17.05;;;;;;;;;;4864803;29;20062;-86
2021/11/13 13:16:56;;;;;;;33.05;16.08;;;;;;;;;;4879773;29;20115;-86
2021/11/13 13:19:26;;;;;;;33.47;17.15;;;;;;;;;;4880740;29;20037;-86
2021/11/13 13:21:53;;;;;;;35.10;18.05;;;;;;;;;;4877216;29;20044;-86
2021/11/13 13:24:21;;;;;;;34.20;17.58;;;;;;;;;;4895534;29;20021;-86
2021/11/13 13:26:48;;;;;;;33.17;16.95;;;;;;;;;;4890195;29;20391;-86
2021/11/13 13:29:16;;;;;;;30.10;16.17;;;;;;;;;;4912754;29;20028;-86
2021/11/13 13:31:54;;;;;;;34.00;16.27;;;;;;;;;;4864590;29;20043;-85
2021/11/13 13:34:20;;;;;;;27.30;14.77;;;;;;;;;;4877478;29;20032;-86
2021/11/13 13:36:49;;;;;;;23.30;14.32;;;;;;;;;;4871187;29;20451;-86
2021/11/13 13:39:15;;;;;;;26.15;13.52;;;;;;;;;;4874129;29;20112;-85
2021/11/13 13:41:41;;;;;;;25.10;15.23;;;;;;;;;;4871869;29;20033;-86
2021/11/13 13:44:07;;;;;;;28.48;16.88;;;;;;;;;;4870630;29;20025;-85
2021/11/13 13:46:42;;;;;;;29.02;16.95;;;;;;;;;;4875133;29;20498;-86
2021/11/13 13:49:13;;;;;;;27.58;15.25;;;;;;;;;;4875219;29;20064;-86
2021/11/13 13:51:43;;;;;;;25.67;14.85;;;;;;;;;;4872348;29;20025;-86
2021/11/13 13:54:12;;;;;;;27.10;13.07;;;;;;;;;;4871783;29;20033;-86
2021/11/13 13:56:44;;;;;;;22.67;12.07;;;;;;;;;;4870330;29;20456;-86
2021/11/13 13:59:19;;;;;;;23.95;13.10;;;;;;;;;;4873852;29;20044;-87
2021/11/13 14:01:52;;;;;;;23.75;13.10;;;;;;;;;;4895323;29;20414;-85
2021/11/13 14:04:18;;;;;;;22.60;13.23;;;;;;;;;;4890972;29;20478;-85
2021/11/13 14:06:44;;;;;;;26.75;14.43;;;;;;;;;;4892460;29;20498;-86
2021/11/13 14:09:11;;;;;;;24.52;13.38;;;;;;;;;;4890135;29;20029;-85
2021/11/13 14:11:38;;;;;;;24.00;14.15;;;;;;;;;;4892059;29;20033;-86
2021/11/13 14:14:04;;;;;;;22.85;12.10;;;;;;;;;;4892088;29;20054;-86
2021/11/13 14:16:32;;;;;;;21.13;12.95;;;;;;;;;;4890152;29;20040;-85